Terminal Aerodrome Forecast
Issued by NWS Shreveport, LA

Home | Current Version | Previous Version | Text Only | Print | Product List | Glossary On
Versions: 1 2 3 4 5 6 7 8 9 10 11 12
942
FTUS44 KSHV 262341
TAFLFK
TAF
KLFK 262341Z 2700/2724 17010G18KT P6SM BKN050 OVC070
     FM270400 14009KT P6SM VCTS BKN020CB
     FM270900 15007KT 4SM -TSRA BR OVC015CB
     FM271700 18010KT 5SM -RA BR VCTS BKN025CB=

USA.gov is the U.S. government's official web portal to all federal, state and local government web resources and services.